Terminal Aerodrome Forecast
Issued by NWS

Home | Current Version | Previous Version | Text Only | Print | Product List | Glossary On
Versions: 1 2 3 4 5 6 7 8 9 10 11 12 13 14
000
FTUS46 KMTR 291120
TAFSJC
TAF
KSJC 291120Z 2912/3012 31003KT P6SM SCT015
      TEMPO 2912/2915 BKN015
     FM291500 VRB03KT P6SM BKN025
     FM291700 30006KT P6SM BKN030 BKN100
     FM292100 32012G18KT P6SM SCT035 BKN250
     FM292300 30015G20KT P6SM FEW050 BKN250
     FM300500 31010KT P6SM FEW250=

USA.gov is the U.S. government's official web portal to all federal, state and local government web resources and services.